Flight Track Log - Related Links

Times and Time Zones

All times are in EST time to prevent confusion due to time zone crossing. See the EJA831 flight status page for this flight to view local times or setup timezone preferences in your user account.

Time Position Orientation Groundspeed Altitude Reporting Facility
EST Latitude Longitude Course Direction KTS MPH feet Rate Location/Type
Sun 04:19:42 PM 33.6939 -81.7617 257° West 232 267 6,300  Level Atlanta Center
Sun 04:20:42 PM 33.6808 -81.8444 259° West 239 275 9,500 5,233 Climbing Atlanta Center
Sun 04:22:42 PM 33.6525 -82.0175 259° West 263 303 22,000 3,133 Climbing Atlanta Center
Sun 04:23:42 PM 33.6392 -82.1075 260° West 268 308 18,900 -100 Descending Atlanta Center
Sun 04:24:00 PM 33.7342 -82.3154 257° West  Level Estimated
Sun 04:24:42 PM 33.6239 -82.1928 258° West 268 308 21,800  Level Atlanta Center
Sun 04:25:42 PM 33.6125 -82.2728 260° West 285 328 22,000 100 Climbing Atlanta Center
Sun 04:26:42 PM 33.5850 -82.3956 255° West 331 381 22,000  Level Atlanta Center
Sun 04:27:42 PM 33.5256 -82.4814 230° Southwest 331 381 22,000  Level Atlanta Center
Sun 04:28:42 PM 33.4661 -82.5747 233° Southwest 344 396 22,000  Level Atlanta Center
Sun 04:29:42 PM 33.4089 -82.6650 233° Southwest 344 396 22,000  Level Atlanta Center
Sun 04:30:42 PM 33.3575 -82.7581 237° Southwest 350 403 22,000  Level Atlanta Center
Sun 04:31:42 PM 33.3525 -82.8725 267° West 339 390 22,000 -150 Level Atlanta Center
Sun 04:32:42 PM 33.3556 -82.9894 272° West 354 407 21,700 -1,050 Descending Atlanta Center
Sun 04:33:42 PM 33.3606 -83.1036 273° West 354 407 19,900 -1,900 Descending Atlanta Center
Sun 04:34:42 PM 33.3678 -83.2156 274° West 349 402 17,900 -1,800 Descending Atlanta Center
Sun 04:35:42 PM 33.3683 -83.3275 270° West 342 394 16,300 -1,700 Descending Atlanta Center
Sun 04:36:42 PM 33.3775 -83.4344 276° West 331 381 14,500 -1,600 Descending Atlanta Center
Sun 04:37:42 PM 33.3800 -83.5314 272° West 331 381 13,100 -1,450 Descending Atlanta Center
Sun 04:38:42 PM 33.3803 -83.6258 270° West 315 362 11,600 -1,050 Descending Atlanta Center
Sun 04:39:42 PM 33.4286 -83.7003 308° West 273 314 11,000 -950 Descending Atlanta Center
Sun 04:40:42 PM 33.4956 -83.7547 326° Northwest 269 310 9,700 -1,450 Descending Atlanta Center
Sun 04:41:42 PM 33.5686 -83.7944 336° Northwest 284 327 8,100 -1,600 Descending Atlanta Center
Sun 04:42:42 PM 33.6458 -83.8217 344° North 284 327 6,500 -1,050 Descending Atlanta Center
Sun 04:43:42 PM 33.7272 -83.8389 350° North 289 333 6,000 -250 Descending Atlanta Center
Sun 04:44:42 PM 33.8150 -83.8539 352° North 294 338 6,000 49 Level Atlanta Center
Sun 04:45:45 PM 33.9000 -83.8833 344° North 276 318 6,100 -341 Climbing Atlanta TRACON
Sun 04:46:45 PM 33.9667 -83.9167 337° Northwest 272 313 5,300 -500 Descending Atlanta TRACON
Sun 04:47:45 PM 34.0000 -83.9667 309° West 204 235 5,100 -100 Descending Atlanta TRACON
Sun 04:48:45 PM 34.0167 -84.0167 292° West 204 235 5,100  Level Atlanta TRACON
Sun 04:49:45 PM 34.0167 -84.0833 270° West 197 227 5,100 -500 Level Atlanta TRACON
Sun 04:50:45 PM 34.0167 -84.1500 270° West 194 223 4,100 -500 Descending Atlanta TRACON
Sun 04:51:45 PM 34.0167 -84.2167 270° West 181 208 4,100 -50 Level Atlanta TRACON
Sun 04:52:45 PM 34.0167 -84.2833 270° West 185 213 4,000 -50 Descending Atlanta TRACON
Sun 04:53:45 PM 34.0167 -84.3500 270° West 189 217 4,000 -50 Level Atlanta TRACON
Sun 04:54:45 PM 34.0167 -84.4000 270° West 178 205 3,900 -350 Descending Atlanta TRACON
Sun 04:55:45 PM 34.0167 -84.4500 270° West 113 130 3,300 -650 Descending Atlanta TRACON
Sun 04:56:45 PM 34.0167 -84.4833 270° West 134 154 2,600 -700 Descending Atlanta TRACON
Sun 04:57:45 PM 34.0167 -84.5333 270° West 139 160 1,900 -700 Descending Atlanta TRACON
Sun 04:59:00 PM 34.0000 -84.5833 248° West  Level FlightAware Approximate

Login

Don't have an account? Register now (free) for customized features, flight alerts, and more!